Time;durP1;ratioP1;P1;durP2;ratioP2;P2;SDS_P1;SDS_P2;PMS_P1;PMS_P2;Temp;Humidity;BMP_temperature;BMP_pressure;BME280_temperature;BME280_humidity;BME280_pressure;Samples;Min_cycle;Max_cycle;Signal;HPM_P1;HPM_P2
2022/02/16 00:01:43;;;;;;;2.87;0.90;;;;;;;-145.69;85.61;72385.50;5113080;28;20204;-79
2022/02/16 00:04:10;;;;;;;3.13;1.00;;;;;;;-145.69;84.71;72381.53;5113838;28;20557;-79
2022/02/16 00:06:38;;;;;;;4.27;1.00;;;;;;;-145.69;84.17;72377.53;5113832;28;20208;-79
2022/02/16 00:09:05;;;;;;;2.40;0.90;;;;;;;-145.69;85.88;72375.56;5113870;28;20208;-79
2022/02/16 00:11:32;;;;;;;3.23;1.00;;;;;;;-145.69;83.28;72357.66;5113885;28;20206;-79
2022/02/16 00:13:59;;;;;;;4.07;1.10;;;;;;;-145.69;82.83;72365.59;5113762;28;20224;-79
2022/02/16 00:16:25;;;;;;;2.80;0.97;;;;;;;-145.69;84.89;72371.56;5103868;28;20542;-78
2022/02/16 00:18:52;;;;;;;3.93;0.93;;;;;;;-145.69;83.50;72363.63;5102094;28;20204;-78
2022/02/16 00:21:18;;;;;;;4.20;1.07;;;;;;;-145.69;82.40;72353.66;5113807;28;20197;-78
2022/02/16 00:23:45;;;;;;;1.60;0.90;;;;;;;-145.69;83.46;72357.66;5113635;28;20201;-79
2022/02/16 00:26:13;;;;;;;3.07;0.90;;;;;;;-145.69;83.53;72365.59;5108442;28;20202;-78
2022/02/16 00:28:39;;;;;;;2.40;0.80;;;;;;;-145.69;83.91;72355.66;5113592;28;20583;-78
2022/02/16 00:31:06;;;;;;;1.30;0.90;;;;;;;-145.69;83.82;72353.66;5112230;28;20194;-79
2022/02/16 00:33:32;;;;;;;1.87;1.00;;;;;;;-145.69;84.67;72355.66;5092903;28;20263;-79
2022/02/16 00:35:59;;;;;;;3.87;0.90;;;;;;;-145.69;85.48;72355.66;5093025;28;20226;-79
2022/02/16 00:38:25;;;;;;;5.33;1.30;;;;;;;-145.69;84.18;72345.69;5093209;28;20198;-79
2022/02/16 00:40:51;;;;;;;1.63;1.07;;;;;;;-145.69;83.74;72345.69;5092829;28;20209;-78
2022/02/16 00:43:19;;;;;;;1.17;1.00;;;;;;;-145.69;84.47;72353.66;5093050;28;20202;-80
2022/02/16 00:45:46;;;;;;;1.97;0.90;;;;;;;-145.69;83.70;72357.66;5092520;28;20202;-79
2022/02/16 00:48:14;;;;;;;1.70;1.03;;;;;;;-145.69;83.94;72353.66;5092987;28;20225;-79
2022/02/16 00:50:41;;;;;;;2.23;0.87;;;;;;;-145.69;84.58;72359.63;5093323;28;20255;-79
2022/02/16 00:53:07;;;;;;;2.67;0.73;;;;;;;-145.69;84.50;72353.66;5093044;28;20197;-79
2022/02/16 00:55:34;;;;;;;2.50;0.90;;;;;;;-145.69;84.72;72361.63;5092675;28;20569;-79
2022/02/16 00:58:00;;;;;;;1.73;1.03;;;;;;;-145.69;85.48;72363.63;5111400;28;20193;-79
2022/02/16 01:00:28;;;;;;;2.03;0.90;;;;;;;-145.69;85.00;72367.59;5113032;28;20686;-79
2022/02/16 01:02:54;;;;;;;2.37;1.07;;;;;;;-145.69;85.60;72357.66;5113067;28;20606;-79
2022/02/16 01:05:21;;;;;;;1.97;1.00;;;;;;;-145.69;84.81;72343.72;5113166;28;20197;-79
2022/02/16 01:07:47;;;;;;;2.83;1.30;;;;;;;-145.69;85.28;72347.69;5112971;28;20204;-79
2022/02/16 01:10:14;;;;;;;2.23;0.90;;;;;;;-145.69;85.02;72335.75;5112938;28;20648;-79
2022/02/16 01:12:40;;;;;;;3.37;0.80;;;;;;;-145.69;85.17;72327.78;5113131;28;20226;-79
2022/02/16 01:15:08;;;;;;;2.83;1.10;;;;;;;-145.69;84.15;72317.84;5112898;28;20229;-79
2022/02/16 01:17:36;;;;;;;2.00;0.90;;;;;;;-145.69;85.55;72313.84;5113298;28;20201;-80
2022/02/16 01:20:04;;;;;;;2.17;0.70;;;;;;;-145.69;84.78;72311.88;5113546;28;20212;-79
2022/02/16 01:22:30;;;;;;;4.00;0.90;;;;;;;-145.69;84.44;72313.84;5113040;28;20614;-78
2022/02/16 01:24:57;;;;;;;4.10;0.73;;;;;;;-145.69;84.23;72289.97;5113059;28;20206;-79
2022/02/16 01:27:24;;;;;;;6.27;0.97;;;;;;;-145.69;85.02;72301.91;5098891;28;20195;-79
2022/02/16 01:29:50;;;;;;;1.43;0.60;;;;;;;-145.69;86.39;72297.94;5092609;28;20657;-79
2022/02/16 01:32:17;;;;;;;7.00;1.17;;;;;;;-145.69;85.36;72291.97;5092403;28;20252;-79
2022/02/16 01:34:45;;;;;;;1.53;0.80;;;;;;;-145.69;84.07;72278.03;5092215;28;20241;-79
2022/02/16 01:37:11;;;;;;;3.20;0.80;;;;;;;-145.69;85.43;72280.03;5097341;28;20577;-79
2022/02/16 01:39:38;;;;;;;2.43;0.93;;;;;;;-145.69;87.39;72289.97;5112874;28;20200;-79
2022/02/16 01:42:04;;;;;;;4.87;0.87;;;;;;;-145.69;85.58;72280.03;5112752;28;20194;-79
2022/02/16 01:44:31;;;;;;;1.07;0.80;;;;;;;-145.69;85.51;72262.09;5113028;28;20213;-78
2022/02/16 01:47:02;;;;;;;2.53;0.73;;;;;;;-145.69;86.04;72246.19;5112923;28;20293;-79
2022/02/16 01:49:28;;;;;;;1.03;0.70;;;;;;;-145.69;86.48;72226.28;5112887;28;20205;-79
2022/02/16 01:51:56;;;;;;;3.23;0.80;;;;;;;-145.69;86.16;72238.22;5112701;28;20200;-79
2022/02/16 01:54:23;;;;;;;2.03;1.00;;;;;;;-145.69;85.73;72228.28;5112519;28;20201;-79
2022/02/16 01:56:50;;;;;;;5.63;0.93;;;;;;;-145.69;84.95;72222.31;5112512;28;20225;-79
2022/02/16 01:59:17;;;;;;;2.17;1.00;;;;;;;-145.69;84.87;72222.31;5116164;28;20202;-79
2022/02/16 02:01:45;;;;;;;1.50;0.90;;;;;;;-145.69;85.58;72226.28;5114634;28;20201;-79
2022/02/16 02:04:11;;;;;;;2.10;0.80;;;;;;;-145.69;85.78;72226.28;5116284;28;20292;-77
2022/02/16 02:06:38;;;;;;;1.57;0.80;;;;;;;-145.69;85.24;72216.34;5115857;28;20201;-79
2022/02/16 02:09:06;;;;;;;3.40;1.00;;;;;;;-145.69;86.48;72220.31;5116145;28;20602;-79
2022/02/16 02:11:33;;;;;;;3.80;0.93;;;;;;;-145.69;86.68;72220.31;5116031;28;20224;-79
2022/02/16 02:14:01;;;;;;;3.13;0.90;;;;;;;-145.69;86.77;72218.31;5116146;28;20197;-80
2022/02/16 02:16:28;;;;;;;1.83;0.63;;;;;;;-145.69;87.81;72210.38;5115691;28;20617;-79
2022/02/16 02:18:55;;;;;;;1.70;0.73;;;;;;;-145.69;88.44;72206.38;5116155;28;20198;-80
2022/02/16 02:21:23;;;;;;;0.97;0.70;;;;;;;-145.69;88.85;72210.38;5115895;28;20206;-79
2022/02/16 02:23:50;;;;;;;0.93;0.70;;;;;;;-145.69;87.70;72204.38;5115630;28;20204;-80
2022/02/16 02:26:18;;;;;;;1.77;0.80;;;;;;;-145.69;87.65;72194.44;5115596;28;20656;-80
2022/02/16 02:28:45;;;;;;;1.87;0.90;;;;;;;-145.69;89.36;72198.41;5115706;28;20678;-79
2022/02/16 02:31:12;;;;;;;2.10;1.00;;;;;;;-145.69;88.65;72190.47;5104332;28;20530;-79
2022/02/16 02:33:39;;;;;;;2.47;0.70;;;;;;;-145.69;88.39;72178.53;5094906;28;20205;-79
2022/02/16 02:36:06;;;;;;;0.60;0.60;;;;;;;-145.69;88.38;72186.47;5095203;28;20283;-79
2022/02/16 02:38:34;;;;;;;5.20;0.70;;;;;;;-145.69;89.68;72182.50;5096282;28;20186;-79
2022/02/16 02:41:03;;;;;;;1.67;1.20;;;;;;;-145.69;90.52;72194.44;5095287;28;20199;-79
2022/02/16 02:43:30;;;;;;;1.07;0.80;;;;;;;-145.69;88.41;72160.59;5095270;28;20206;-79
2022/02/16 02:45:57;;;;;;;1.10;0.67;;;;;;;-145.69;89.20;72152.66;5095132;28;20205;-79
2022/02/16 02:48:24;;;;;;;3.80;0.80;;;;;;;-145.69;89.63;72148.66;5095067;28;20198;-79
2022/02/16 02:50:52;;;;;;;3.27;0.60;;;;;;;-145.69;89.53;72144.69;5094889;28;20251;-79
2022/02/16 02:53:18;;;;;;;2.67;0.73;;;;;;;-145.69;87.11;72134.72;5095114;28;20198;-79
2022/02/16 02:55:46;;;;;;;1.17;0.67;;;;;;;-145.69;87.33;72130.75;5094357;28;20249;-79
2022/02/16 02:58:13;;;;;;;2.53;0.60;;;;;;;-145.69;87.68;72130.75;5094968;28;20209;-79
2022/02/16 03:00:39;;;;;;;0.60;0.60;;;;;;;-145.69;88.11;72130.75;5100948;28;20197;-79
2022/02/16 03:03:06;;;;;;;1.93;0.70;;;;;;;-145.69;88.55;72128.75;5115097;28;20201;-79
2022/02/16 03:05:32;;;;;;;1.37;0.73;;;;;;;-145.69;88.08;72126.78;5114689;28;20201;-79
2022/02/16 03:07:59;;;;;;;2.07;0.73;;;;;;;-145.69;88.93;72120.81;5115095;28;20197;-79
2022/02/16 03:10:25;;;;;;;0.90;0.67;;;;;;;-145.69;88.51;72122.78;5114016;28;20209;-79
2022/02/16 03:12:53;;;;;;;1.70;0.70;;;;;;;-145.69;88.66;72118.81;5115099;28;20205;-79
2022/02/16 03:15:19;;;;;;;1.07;0.80;;;;;;;-145.69;90.19;72118.81;5114885;28;20229;-79
2022/02/16 03:17:46;;;;;;;0.70;0.70;;;;;;;-145.69;89.95;72110.84;5114704;28;20201;-80
2022/02/16 03:20:13;;;;;;;0.80;0.60;;;;;;;-145.69;89.18;72094.94;5114190;28;20208;-80
2022/02/16 03:22:40;;;;;;;0.93;0.57;;;;;;;-145.69;88.19;72084.97;5114730;28;20205;-79
2022/02/16 03:25:08;;;;;;;1.10;0.67;;;;;;;-145.69;89.19;72082.97;5114867;28;20247;-79
2022/02/16 03:27:34;;;;;;;1.53;0.63;;;;;;;-145.69;90.01;72092.94;5114746;28;20208;-79
2022/02/16 03:30:04;;;;;;;0.53;0.53;;;;;;;-145.69;91.48;72077.00;5113828;28;20200;-80
2022/02/16 03:32:31;;;;;;;2.30;0.80;;;;;;;-145.69;89.02;72075.03;5096388;28;20205;-79
2022/02/16 03:34:57;;;;;;;0.90;0.70;;;;;;;-145.69;89.25;72071.03;5094057;28;20237;-80
2022/02/16 03:37:24;;;;;;;3.30;0.73;;;;;;;-145.69;89.41;72065.06;5093724;28;20198;-79
2022/02/16 03:39:50;;;;;;;2.03;0.90;;;;;;;-145.69;91.33;72071.03;5094181;28;20225;-80
2022/02/16 03:42:17;;;;;;;1.17;0.80;;;;;;;-145.69;91.21;72069.06;5093769;28;20661;-79
2022/02/16 03:44:43;;;;;;;0.63;0.63;;;;;;;-145.69;90.74;72055.13;5094113;28;20252;-78
2022/02/16 03:47:11;;;;;;;1.07;0.67;;;;;;;-145.69;90.55;72059.09;5093405;28;20198;-79
2022/02/16 03:49:37;;;;;;;1.33;0.70;;;;;;;-145.69;91.65;72055.13;5094042;28;20198;-79
2022/02/16 03:52:04;;;;;;;0.70;0.70;;;;;;;-145.69;91.39;72057.13;5093914;28;20251;-80
2022/02/16 03:54:31;;;;;;;3.40;0.70;;;;;;;-145.69;92.06;72065.06;5093236;28;20534;-79
2022/02/16 03:56:57;;;;;;;0.50;0.50;;;;;;;-145.69;92.45;72081.00;5093450;28;20734;-79
2022/02/16 03:59:24;;;;;;;1.07;0.87;;;;;;;-145.69;92.01;72081.00;5093728;28;20202;-80
2022/02/16 04:01:50;;;;;;;0.77;0.60;;;;;;;-145.69;92.25;72075.03;5096487;28;20194;-79
2022/02/16 04:04:18;;;;;;;1.20;1.07;;;;;;;-145.69;92.00;72075.03;5093149;28;20675;-79
2022/02/16 04:06:44;;;;;;;1.80;0.80;;;;;;;-145.69;92.49;72086.97;5093524;28;20198;-79
2022/02/16 04:09:12;;;;;;;2.10;0.70;;;;;;;-145.69;93.08;72086.97;5093435;28;20243;-80
2022/02/16 04:11:38;;;;;;;0.93;0.70;;;;;;;-145.69;92.74;72071.03;5093106;28;20204;-80
2022/02/16 04:14:05;;;;;;;2.53;0.60;;;;;;;-145.69;93.60;72071.03;5093054;28;20441;-78
2022/02/16 04:16:31;;;;;;;0.70;0.70;;;;;;;-145.69;93.12;72065.06;5093586;28;20229;-79
2022/02/16 04:18:57;;;;;;;1.53;0.70;;;;;;;-145.69;93.13;72071.03;5093521;28;20247;-79
2022/02/16 04:21:25;;;;;;;0.60;0.60;;;;;;;-145.69;94.98;72071.03;5092920;28;20217;-79
2022/02/16 04:23:52;;;;;;;1.50;0.77;;;;;;;-145.69;95.64;72071.03;5093263;28;20263;-80
2022/02/16 04:26:18;;;;;;;1.13;0.60;;;;;;;-145.69;94.84;72065.06;5092855;28;20225;-80
2022/02/16 04:28:44;;;;;;;1.00;0.90;;;;;;;-145.69;96.55;72065.06;5093056;28;20198;-80
2022/02/16 04:31:11;;;;;;;0.77;0.63;;;;;;;-145.69;96.24;72067.06;5094639;28;20247;-80
2022/02/16 04:33:37;;;;;;;0.90;0.67;;;;;;;-145.69;96.09;72031.25;5093081;28;20213;-79
2022/02/16 04:36:04;;;;;;;0.60;0.50;;;;;;;-145.69;95.16;72045.16;5093035;28;20233;-79
2022/02/16 04:38:32;;;;;;;2.00;0.70;;;;;;;-145.69;95.02;72039.19;5092836;28;20595;-80
2022/02/16 04:40:59;;;;;;;1.43;0.50;;;;;;;-145.69;96.13;72051.16;5093020;28;20198;-79
2022/02/16 04:43:25;;;;;;;1.20;0.53;;;;;;;-145.69;95.21;72051.16;5092858;28;20213;-80
2022/02/16 04:45:52;;;;;;;1.27;0.70;;;;;;;-145.69;95.62;72035.22;5093097;28;20205;-80
2022/02/16 04:48:21;;;;;;;1.13;0.68;;;;;;;-145.69;97.31;72039.19;5091702;28;20433;-79
2022/02/16 04:50:47;;;;;;;0.80;0.70;;;;;;;-145.69;96.54;72043.19;5092927;28;20657;-79
2022/02/16 04:53:14;;;;;;;4.43;0.60;;;;;;;-145.69;97.44;72043.19;5093066;28;20209;-79
2022/02/16 04:55:41;;;;;;;0.50;0.50;;;;;;;-145.69;98.20;72063.09;5092798;28;20234;-80
2022/02/16 04:58:08;;;;;;;0.53;0.50;;;;;;;-145.69;96.79;72045.16;5091864;28;20198;-78
2022/02/16 05:00:34;;;;;;;0.60;0.60;;;;;;;-145.69;97.15;72043.19;5097346;28;20197;-79
2022/02/16 05:03:01;;;;;;;0.80;0.80;;;;;;;-145.69;97.71;72043.19;5113238;28;20189;-79
2022/02/16 05:05:27;;;;;;;0.50;0.50;;;;;;;-145.69;98.17;72047.16;5112973;28;20209;-79
2022/02/16 05:07:54;;;;;;;2.10;0.63;;;;;;;-145.69;98.59;72051.16;5112940;28;20208;-79
2022/02/16 05:10:20;;;;;;;1.77;0.50;;;;;;;-145.69;98.93;72045.16;5113074;28;20224;-79
2022/02/16 05:12:48;;;;;;;2.80;0.80;;;;;;;-145.69;99.28;72053.13;5113499;28;20201;-80
2022/02/16 05:15:14;;;;;;;0.90;0.60;;;;;;;-145.69;99.16;72055.13;5113076;28;20197;-79
2022/02/16 05:17:41;;;;;;;2.20;0.80;;;;;;;-145.69;99.06;72039.19;5113169;28;20255;-79
2022/02/16 05:20:08;;;;;;;0.57;0.57;;;;;;;-145.69;100.00;72039.19;5113145;28;20205;-79
2022/02/16 05:22:35;;;;;;;1.13;0.60;;;;;;;-145.69;98.43;72027.25;5112554;28;20224;-78
2022/02/16 05:25:01;;;;;;;1.27;0.70;;;;;;;-145.69;98.19;72025.28;5113130;28;20292;-79
2022/02/16 05:27:28;;;;;;;2.27;0.80;;;;;;;-145.69;99.40;72025.28;5112843;28;20209;-79
2022/02/16 05:29:56;;;;;;;2.30;0.80;;;;;;;-145.69;99.46;72031.25;5108715;28;20190;-79
2022/02/16 05:32:22;;;;;;;0.67;0.60;;;;;;;-145.69;100.00;72039.19;5093145;28;20198;-79
2022/02/16 05:34:49;;;;;;;1.73;0.73;;;;;;;-145.69;100.00;72045.16;5096527;28;20209;-79
2022/02/16 05:37:15;;;;;;;2.83;1.07;;;;;;;-145.69;100.00;72043.19;5098430;28;20226;-80
2022/02/16 05:39:42;;;;;;;0.90;0.70;;;;;;;-145.69;100.00;72043.19;5096340;28;20798;-79
2022/02/16 05:42:09;;;;;;;1.67;0.70;;;;;;;-145.69;100.00;72027.25;5096544;28;20232;-79
2022/02/16 05:44:36;;;;;;;1.90;0.60;;;;;;;-145.69;100.00;72033.22;5096377;28;20612;-79
2022/02/16 05:47:04;;;;;;;1.07;0.90;;;;;;;-145.69;100.00;72025.28;5096388;28;20209;-79
2022/02/16 05:49:31;;;;;;;0.93;0.60;;;;;;;-145.69;100.00;72029.25;5096343;28;20198;-80
2022/02/16 05:51:57;;;;;;;0.77;0.70;;;;;;;-145.69;100.00;72031.25;5096289;28;20201;-79
2022/02/16 05:54:24;;;;;;;1.90;0.80;;;;;;;-145.69;100.00;72033.22;5095921;28;20836;-79
2022/02/16 05:56:50;;;;;;;0.73;0.73;;;;;;;-145.69;100.00;72019.31;5095673;28;20238;-79
2022/02/16 05:59:17;;;;;;;1.03;0.60;;;;;;;-145.69;100.00;72009.34;5096204;28;20202;-79
2022/02/16 06:01:44;;;;;;;0.87;0.70;;;;;;;-145.69;100.00;72009.34;5114813;28;20193;-79
2022/02/16 06:04:16;;;;;;;0.63;0.63;;;;;;;-145.69;100.00;71997.41;5116455;28;20247;-79
2022/02/16 06:06:43;;;;;;;1.27;0.93;;;;;;;-145.69;100.00;71999.41;5116049;28;20204;-79
2022/02/16 06:09:09;;;;;;;1.17;0.80;;;;;;;-145.69;100.00;71983.47;5115825;28;20205;-79
2022/02/16 06:11:36;;;;;;;1.37;0.90;;;;;;;-145.69;100.00;71991.44;5116071;28;20205;-79
2022/02/16 06:14:02;;;;;;;1.10;0.90;;;;;;;-145.69;100.00;71983.47;5116284;28;20206;-80
2022/02/16 06:16:29;;;;;;;1.03;0.80;;;;;;;-145.69;100.00;71979.50;5115874;28;20225;-79
2022/02/16 06:18:55;;;;;;;1.60;0.90;;;;;;;-145.69;100.00;71975.50;5115871;28;20241;-79
2022/02/16 06:21:23;;;;;;;1.63;1.00;;;;;;;-145.69;100.00;71963.56;5116040;28;20201;-80
2022/02/16 06:23:50;;;;;;;1.83;1.10;;;;;;;-145.69;100.00;71975.50;5116262;28;20227;-80
2022/02/16 06:26:16;;;;;;;1.30;0.70;;;;;;;-145.69;100.00;71963.56;5115753;28;20718;-80
2022/02/16 06:28:43;;;;;;;2.20;0.83;;;;;;;-145.69;100.00;71959.59;5115744;28;20202;-79
2022/02/16 06:31:09;;;;;;;0.93;0.80;;;;;;;-145.69;100.00;71955.63;5101938;28;20190;-80
2022/02/16 06:33:36;;;;;;;4.00;0.93;;;;;;;-145.69;100.00;71951.63;5095408;28;20272;-79
2022/02/16 06:36:02;;;;;;;0.93;0.80;;;;;;;-145.69;100.00;71955.63;5095315;28;20267;-79
2022/02/16 06:38:30;;;;;;;2.07;0.90;;;;;;;-145.69;100.00;71955.63;5095220;28;20198;-80
2022/02/16 06:40:57;;;;;;;0.73;0.70;;;;;;;-145.69;100.00;71951.63;5095239;28;20201;-80
2022/02/16 06:43:23;;;;;;;2.57;0.90;;;;;;;-145.69;100.00;71955.63;5095400;28;20225;-79
2022/02/16 06:45:50;;;;;;;1.27;0.70;;;;;;;-145.69;100.00;71943.69;5095182;28;20206;-80
2022/02/16 06:48:19;;;;;;;0.70;0.70;;;;;;;-145.69;100.00;71941.69;5109077;28;20194;-80
2022/02/16 06:50:47;;;;;;;1.10;0.80;;;;;;;-145.69;100.00;71951.63;5115720;28;20534;-79
2022/02/16 06:53:13;;;;;;;1.53;0.73;;;;;;;-145.69;100.00;71949.66;5115153;28;20243;-79
2022/02/16 06:55:41;;;;;;;1.13;0.80;;;;;;;-145.69;100.00;71951.63;5115251;28;20294;-80
2022/02/16 06:58:07;;;;;;;1.37;0.70;;;;;;;-145.69;100.00;71929.75;5115320;28;20205;-80
2022/02/16 07:00:34;;;;;;;1.33;0.57;;;;;;;-145.69;100.00;71931.72;5115040;28;20197;-79
2022/02/16 07:03:00;;;;;;;0.80;0.70;;;;;;;-145.69;99.82;71925.75;5115075;28;20202;-79
2022/02/16 07:05:27;;;;;;;0.90;0.70;;;;;;;-145.69;99.82;71919.78;5115319;28;20213;-80
2022/02/16 07:07:54;;;;;;;1.27;0.70;;;;;;;-145.69;99.30;71901.88;5115356;28;20198;-79
2022/02/16 07:10:20;;;;;;;0.60;0.60;;;;;;;-145.69;98.58;71901.88;5115323;28;20224;-80
2022/02/16 07:12:48;;;;;;;0.57;0.57;;;;;;;-145.69;99.82;71895.91;5114828;28;20205;-80
2022/02/16 07:15:14;;;;;;;0.70;0.70;;;;;;;-145.69;100.00;71883.97;5115071;28;20201;-79
2022/02/16 07:17:41;;;;;;;0.97;0.80;;;;;;;-145.69;99.27;71887.94;5114581;28;20225;-79
2022/02/16 07:20:10;;;;;;;0.67;0.67;;;;;;;-145.69;99.34;71880.00;5115234;28;20280;-79
2022/02/16 07:22:41;;;;;;;0.60;0.57;;;;;;;-145.69;98.46;71876.00;5115094;28;20202;-80
2022/02/16 07:25:08;;;;;;;2.30;0.57;;;;;;;-145.69;99.15;71881.97;5115083;28;20274;-79
2022/02/16 07:27:35;;;;;;;0.60;0.50;;;;;;;-145.69;100.00;71883.97;5114842;28;20220;-79
2022/02/16 07:30:05;;;;;;;0.60;0.60;;;;;;;-145.69;98.72;71880.00;5113423;28;20207;-79
2022/02/16 07:32:31;;;;;;;1.07;0.70;;;;;;;-145.69;99.61;71876.00;5113243;28;20201;-80
2022/02/16 07:34:58;;;;;;;0.70;0.70;;;;;;;-145.69;100.00;71880.00;5112706;28;20201;-79
2022/02/16 07:37:24;;;;;;;0.67;0.50;;;;;;;-145.69;100.00;71872.03;5114842;28;20225;-79
2022/02/16 07:39:51;;;;;;;0.90;0.57;;;;;;;-145.69;100.00;71880.00;5114807;28;20586;-80
2022/02/16 07:42:17;;;;;;;1.43;0.80;;;;;;;-145.69;100.00;71876.00;5114753;28;20204;-80
2022/02/16 07:44:43;;;;;;;0.60;0.60;;;;;;;-145.69;100.00;71872.03;5114701;28;20609;-80
2022/02/16 07:47:11;;;;;;;0.50;0.50;;;;;;;-145.69;99.93;71856.09;5115391;28;20201;-79
2022/02/16 07:49:38;;;;;;;1.07;0.80;;;;;;;-145.69;100.00;71850.13;5105283;28;20198;-79
2022/02/16 07:52:05;;;;;;;2.03;0.60;;;;;;;-145.69;100.00;71850.13;5114562;28;20236;-80
2022/02/16 07:54:32;;;;;;;1.07;0.60;;;;;;;-145.69;100.00;71838.19;5114432;28;20207;-80
2022/02/16 07:56:58;;;;;;;1.67;0.60;;;;;;;-145.69;100.00;71832.22;5113233;28;20240;-79
2022/02/16 07:59:25;;;;;;;1.90;0.60;;;;;;;-145.69;99.92;71820.28;5113896;28;20201;-80
2022/02/16 08:01:51;;;;;;;1.23;0.60;;;;;;;-145.69;100.00;71834.22;5113675;28;20540;-79
2022/02/16 08:04:19;;;;;;;0.50;0.50;;;;;;;-145.69;100.00;71838.19;5112970;28;20204;-80
2022/02/16 08:06:47;;;;;;;1.60;0.70;;;;;;;-145.69;100.00;71840.19;5114248;28;20208;-79
2022/02/16 08:09:15;;;;;;;0.73;0.70;;;;;;;-145.69;100.00;71840.19;5113994;28;20209;-79
2022/02/16 08:11:42;;;;;;;0.67;0.67;;;;;;;-145.69;100.00;71860.09;5113939;28;20201;-79
2022/02/16 08:14:09;;;;;;;3.37;1.53;;;;;;;-145.69;100.00;71848.16;5113848;28;20656;-79
2022/02/16 08:16:36;;;;;;;32.23;10.13;;;;;;;-145.69;100.00;71860.09;5113550;28;20225;-79
2022/02/16 08:19:04;;;;;;;8.40;3.90;;;;;;;-145.69;100.00;71872.03;5102914;28;20198;-79
2022/02/16 08:21:32;;;;;;;1.10;1.00;;;;;;;-145.69;100.00;71864.06;5093528;28;20198;-80
2022/02/16 08:23:58;;;;;;;1.50;1.37;;;;;;;-145.69;100.00;71872.03;5093221;28;20588;-79
2022/02/16 08:26:25;;;;;;;0.53;0.53;;;;;;;-145.69;100.00;71860.09;5093298;28;20197;-79
2022/02/16 08:28:52;;;;;;;0.50;0.50;;;;;;;-145.69;100.00;71852.13;5093650;28;20198;-79
2022/02/16 08:31:19;;;;;;;0.63;0.53;;;;;;;-145.69;100.00;71848.16;5092900;28;20202;-79
2022/02/16 08:33:46;;;;;;;1.43;0.77;;;;;;;-145.69;100.00;71850.13;5093227;28;20677;-81
2022/02/16 08:36:13;;;;;;;2.90;0.73;;;;;;;-145.69;100.00;71850.13;5093326;28;20607;-80
2022/02/16 08:38:41;;;;;;;0.93;0.83;;;;;;;-145.69;100.00;71834.22;5093221;28;20194;-79
2022/02/16 08:41:08;;;;;;;0.63;0.60;;;;;;;-145.69;100.00;71842.19;5093247;28;20198;-80
2022/02/16 08:43:35;;;;;;;1.40;0.80;;;;;;;-145.69;100.00;71828.25;5092996;28;20225;-80
2022/02/16 08:46:02;;;;;;;0.90;0.70;;;;;;;-145.69;100.00;71834.22;5113523;28;20201;-80
2022/02/16 08:48:29;;;;;;;0.50;0.50;;;;;;;-145.69;100.00;71834.22;5102730;28;20205;-79
2022/02/16 08:50:56;;;;;;;0.60;0.60;;;;;;;-145.69;100.00;71832.22;5093040;28;20198;-79
2022/02/16 08:53:26;;;;;;;23.90;13.20;;;;;;;-145.69;100.00;71836.22;5092533;28;20259;-79
2022/02/16 08:55:53;;;;;;;3.63;3.07;;;;;;;-145.69;100.00;71814.31;5092891;28;20230;-78
2022/02/16 08:58:21;;;;;;;1.13;0.80;;;;;;;-145.69;100.00;71814.31;5093026;28;20221;-78
2022/02/16 09:00:48;;;;;;;0.60;0.60;;;;;;;-145.69;100.00;71822.28;5099557;28;20567;-80
2022/02/16 09:03:14;;;;;;;0.80;0.70;;;;;;;-145.69;100.00;71814.31;5113287;28;20206;-80
2022/02/16 09:05:41;;;;;;;0.80;0.63;;;;;;;-145.69;100.00;71816.31;5113471;28;20199;-79
2022/02/16 09:08:07;;;;;;;0.50;0.50;;;;;;;-145.69;100.00;71794.41;5115120;28;20201;-78
2022/02/16 09:10:34;;;;;;;0.60;0.60;;;;;;;-145.69;100.00;71784.47;5117537;28;20205;-80
2022/02/16 09:13:02;;;;;;;0.97;0.70;;;;;;;-145.69;100.00;71764.56;5117783;28;20204;-81
2022/02/16 09:15:28;;;;;;;0.70;0.70;;;;;;;-145.69;100.00;71734.72;5117902;28;20205;-81
2022/02/16 09:17:55;;;;;;;0.57;0.57;;;;;;;-145.69;100.00;71712.81;5114089;28;20274;-80
2022/02/16 09:20:22;;;;;;;3.23;1.00;;;;;;;-145.69;100.00;71710.84;5096332;28;20194;-80
2022/02/16 09:22:49;;;;;;;0.50;0.50;;;;;;;-145.69;100.00;71708.84;5096725;28;20202;-79
2022/02/16 09:25:15;;;;;;;1.53;0.70;;;;;;;-145.69;100.00;71712.81;5097056;28;20243;-79
2022/02/16 09:27:43;;;;;;;1.10;0.73;;;;;;;-145.69;100.00;71704.88;5097850;28;20202;-79
2022/02/16 09:30:11;;;;;;;1.40;0.60;;;;;;;-145.69;100.00;71680.97;5117429;28;20200;-79
2022/02/16 09:32:38;;;;;;;0.70;0.70;;;;;;;-145.69;100.00;71649.16;5117293;28;20212;-79
2022/02/16 09:35:06;;;;;;;1.13;0.90;;;;;;;-145.69;100.00;71637.19;5117146;28;20201;-79
2022/02/16 09:37:32;;;;;;;0.50;0.50;;;;;;;-145.69;100.00;71625.25;5116659;28;20232;-78
2022/02/16 09:39:59;;;;;;;0.60;0.60;;;;;;;-145.69;100.00;71657.09;5119076;28;20201;-79
2022/02/16 09:42:27;;;;;;;0.50;0.50;;;;;;;-145.69;100.00;71659.09;5116518;28;20202;-79
2022/02/16 09:44:57;;;;;;;0.53;0.53;;;;;;;-145.69;100.00;71655.13;5116918;28;20605;-79
2022/02/16 09:47:25;;;;;;;0.50;0.50;;;;;;;-145.69;100.00;71635.22;5114977;28;20198;-79
2022/02/16 09:49:52;;;;;;;1.57;0.90;;;;;;;-145.69;100.00;71647.16;5111232;28;20729;-79
2022/02/16 09:52:19;;;;;;;0.60;0.60;;;;;;;-145.69;100.00;71641.19;5112410;28;20201;-78
2022/02/16 09:54:46;;;;;;;0.73;0.70;;;;;;;-145.69;100.00;71673.03;5115576;28;20541;-79
2022/02/16 09:57:13;;;;;;;0.60;0.60;;;;;;;-145.69;100.00;71663.06;5116415;28;20236;-78
2022/02/16 09:59:40;;;;;;;0.50;0.50;;;;;;;-145.69;100.00;71661.09;5112276;28;20660;-78
2022/02/16 10:02:09;;;;;;;0.60;0.60;;;;;;;-145.69;100.00;71645.16;5116287;28;20197;-77
2022/02/16 10:04:39;;;;;;;2.53;0.50;;;;;;;-145.69;100.00;71637.19;5116449;28;20241;-78
2022/02/16 10:07:22;;;;;;;0.40;0.40;;;;;;;-145.69;100.00;71625.25;5116275;28;20202;-77
2022/02/16 10:09:49;;;;;;;0.40;0.40;;;;;;;-145.69;99.73;71607.34;5116114;28;20214;-78
2022/02/16 10:12:15;;;;;;;0.40;0.37;;;;;;;-145.69;100.00;71601.38;5116387;28;20204;-79
2022/02/16 10:14:42;;;;;;;0.63;0.63;;;;;;;-145.69;100.00;71591.44;5116102;28;20197;-78
2022/02/16 10:17:18;;;;;;;0.50;0.50;;;;;;;-145.69;99.88;71603.38;5116198;28;20217;-77
2022/02/16 10:19:51;;;;;;;0.50;0.50;;;;;;;-145.69;100.00;71599.41;5115116;28;20193;-79
2022/02/16 10:22:19;;;;;;;1.40;0.50;;;;;;;-145.69;100.00;71569.53;5116159;28;20204;-79
2022/02/16 10:24:46;;;;;;;0.40;0.40;;;;;;;-145.69;98.90;71585.47;5115981;28;20201;-77
2022/02/16 10:27:16;;;;;;;1.00;0.63;;;;;;;-145.69;98.43;71571.53;5100327;28;20198;-79
2022/02/16 10:29:44;;;;;;;0.40;0.40;;;;;;;-145.69;96.64;71545.66;5095743;28;20194;-79
2022/02/16 10:32:25;;;;;;;0.43;0.43;;;;;;;-145.69;95.73;71549.66;5095609;28;20202;-79
2022/02/16 10:34:54;;;;;;;0.50;0.50;;;;;;;-145.69;96.55;71557.59;5095440;28;20205;-77
2022/02/16 10:37:28;;;;;;;0.30;0.30;;;;;;;-145.69;96.80;71573.53;5095288;28;20236;-80
2022/02/16 10:40:06;;;;;;;0.40;0.40;;;;;;;-145.69;97.56;71549.66;5095744;28;20182;-79
2022/02/16 10:42:33;;;;;;;0.70;0.70;;;;;;;-145.69;97.24;71547.66;5095431;28;20206;-79
2022/02/16 10:45:21;;;;;;;0.30;0.30;;;;;;;-145.69;98.17;71533.72;5095421;28;20206;-79
2022/02/16 10:47:56;;;;;;;0.70;0.70;;;;;;;-145.69;96.41;71523.78;5094694;28;20206;-79
2022/02/16 10:50:26;;;;;;;0.53;0.50;;;;;;;-145.69;93.58;71482.00;5095483;28;20197;-79
2022/02/16 10:52:55;;;;;;;0.80;0.70;;;;;;;-145.69;94.83;71485.97;5095191;28;20198;-79
2022/02/16 10:55:36;;;;;;;1.53;0.90;;;;;;;-145.69;96.03;71460.09;5095069;28;20226;-79
2022/02/16 10:58:06;;;;;;;4.33;2.70;;;;;;;-145.69;92.67;71446.16;5095067;28;20271;-79
2022/02/16 11:00:34;;;;;;;0.70;0.70;;;;;;;-145.69;93.92;71424.28;5094954;28;20198;-79
2022/02/16 11:03:04;;;;;;;0.57;0.57;;;;;;;-145.69;92.54;71406.38;5095124;28;20284;-79
2022/02/16 11:05:35;;;;;;;0.53;0.53;;;;;;;-145.69;91.84;71418.31;5113816;28;20640;-79
2022/02/16 11:08:12;;;;;;;0.60;0.60;;;;;;;-145.69;92.68;71394.44;5115417;28;20205;-78
2022/02/16 11:10:40;;;;;;;0.40;0.40;;;;;;;-145.69;93.11;71420.31;5115006;28;20201;-79
2022/02/16 11:13:09;;;;;;;0.40;0.40;;;;;;;-145.69;95.92;71400.41;5114964;28;20594;-79
2022/02/16 11:15:36;;;;;;;0.80;0.60;;;;;;;-145.69;95.03;71382.50;5115251;28;20197;-78